KSPS/SPS METAR and TAF weather

Enter ICAO airport designator
Station Type Date Time Source
KSPS METAR 2019/08/25 17:52 UTC NOAA

KSPS 251752Z 11011G17KT 10SM CLR 34/21 A2983 RMK AO2 SLP087 T03440211 10344 20217 58007


Station Type Date Time Source
KSPS Decoded METAR 2019/08/25 17:52 UTC NOAA

Station name not available
Aug 25, 2019 - 01:52 PM EDT / 2019.08.25 1752 UTC
Wind: from the ESE (110 degrees) at 13 MPH (11 KT) gusting to 20 MPH (17 KT):0
Visibility: 10 mile(s):0
Sky conditions: clear
Temperature: 93.9 F (34.4 C)
Heat index: 99.7 F (37.6 C):1
Dew Point: 70.0 F (21.1 C)
Relative Humidity: 45%
Pressure (altimeter): 29.83 in. Hg (1010 hPa)
Pressure tendency: 0.02 inches (0.7 hPa) lower than three hours ago
ob: KSPS 251752Z 11011G17KT 10SM CLR 34/21 A2983 RMK AO2 SLP087 T03440211 10344 20217 58007
cycle: 18

Station Type Date Time Source
KSPS TAF 2019/08/25 18:36 UTC NOAA

TAF KSPS 251734Z 2518/2618 16012KT P6SM SCT045
FM260000 12010KT P6SM SCT250
FM261500 19016KT P6SM SKC

Example: see airport list